createdAt,value
2022-08-28T00:00:56.450Z,3.65
2022-08-28T00:03:23.274Z,3.65
2022-08-28T00:05:50.198Z,3.42
2022-08-28T00:08:17.310Z,3.60
2022-08-28T00:10:44.361Z,3.40
2022-08-28T00:13:18.595Z,3.55
2022-08-28T00:15:46.447Z,3.30
2022-08-28T00:18:13.497Z,3.10
2022-08-28T00:20:41.133Z,3.05
2022-08-28T00:23:08.013Z,3.03
2022-08-28T00:25:35.435Z,3.03
2022-08-28T00:28:08.526Z,3.40
2022-08-28T00:30:44.085Z,3.03
2022-08-28T00:33:12.781Z,3.15
2022-08-28T00:35:41.129Z,3.00
2022-08-28T00:38:09.022Z,3.03
2022-08-28T00:40:36.828Z,2.80
2022-08-28T00:43:04.674Z,2.83
2022-08-28T00:45:35.976Z,3.00
2022-08-28T00:48:05.802Z,3.05
2022-08-28T00:50:52.977Z,3.00
2022-08-28T00:53:25.330Z,3.30
2022-08-28T00:55:56.794Z,3.25
2022-08-28T00:58:25.092Z,3.22
2022-08-28T01:00:52.139Z,3.42
2022-08-28T01:03:19.016Z,3.30
2022-08-28T01:05:49.301Z,3.70
2022-08-28T01:08:16.564Z,3.40
2022-08-28T01:10:47.832Z,3.40
2022-08-28T01:13:14.994Z,3.28
2022-08-28T01:15:42.653Z,3.45
2022-08-28T01:18:11.756Z,3.35
2022-08-28T01:20:43.546Z,3.53
2022-08-28T01:23:15.708Z,3.35
2022-08-28T01:25:43.069Z,3.40
2022-08-28T01:28:12.771Z,3.50
2022-08-28T01:30:44.628Z,3.70
2022-08-28T01:33:14.532Z,3.58
2022-08-28T01:35:44.335Z,3.70
2022-08-28T01:38:11.394Z,3.53
2022-08-28T01:40:40.551Z,3.25
2022-08-28T01:43:09.354Z,3.13
2022-08-28T01:45:37.797Z,3.35
2022-08-28T01:48:06.093Z,3.30
2022-08-28T01:50:33.717Z,3.33
2022-08-28T01:53:00.869Z,3.60
2022-08-28T01:55:28.486Z,3.30
2022-08-28T01:57:56.530Z,3.28
2022-08-28T02:00:27.557Z,3.17
2022-08-28T02:02:56.588Z,3.30
2022-08-28T02:05:24.201Z,3.10
2022-08-28T02:07:52.561Z,3.50
2022-08-28T02:10:22.626Z,3.17
2022-08-28T02:12:50.065Z,3.22
2022-08-28T02:15:17.021Z,3.40
2022-08-28T02:17:45.789Z,3.20
2022-08-28T02:20:12.663Z,3.70
2022-08-28T02:22:39.645Z,3.30
2022-08-28T02:25:07.702Z,3.17
2022-08-28T02:27:34.639Z,3.10
2022-08-28T02:30:01.703Z,3.20
2022-08-28T02:32:28.568Z,3.30
2022-08-28T02:34:55.491Z,3.28
2022-08-28T02:37:24.388Z,3.40
2022-08-28T02:39:54.949Z,3.63
2022-08-28T02:42:22.171Z,3.42
2022-08-28T02:44:49.362Z,4.10
2022-08-28T02:47:16.295Z,3.50
2022-08-28T02:49:43.255Z,3.22
2022-08-28T02:52:10.473Z,3.35
2022-08-28T02:54:39.798Z,3.40
2022-08-28T02:57:08.312Z,3.28
2022-08-28T02:59:36.321Z,3.13
2022-08-28T03:02:04.515Z,3.30
2022-08-28T03:04:34.535Z,2.97
2022-08-28T03:07:01.503Z,3.20
2022-08-28T03:09:28.590Z,3.30
2022-08-28T03:11:55.559Z,3.33
2022-08-28T03:14:22.635Z,3.33
2022-08-28T03:16:49.590Z,3.45
2022-08-28T03:19:16.471Z,3.28
2022-08-28T03:21:43.429Z,3.60
2022-08-28T03:24:10.393Z,3.63
2022-08-28T03:26:42.006Z,3.47
2022-08-28T03:29:08.894Z,3.60
2022-08-28T03:31:36.333Z,3.10
2022-08-28T03:34:03.255Z,3.03
2022-08-28T03:36:30.121Z,2.88
2022-08-28T03:38:58.095Z,2.88
2022-08-28T03:41:25.951Z,2.90
2022-08-28T03:43:52.805Z,2.67
2022-08-28T03:46:21.031Z,2.75
2022-08-28T03:48:48.052Z,2.95
2022-08-28T03:51:19.037Z,3.00
2022-08-28T03:53:49.432Z,2.90
2022-08-28T03:56:18.915Z,3.20
2022-08-28T03:58:45.731Z,2.78
2022-08-28T04:01:12.634Z,3.30
2022-08-28T04:03:39.617Z,3.20
2022-08-28T04:06:06.787Z,3.03
2022-08-28T04:08:33.770Z,3.28
2022-08-28T04:11:01.077Z,3.13
2022-08-28T04:13:28.404Z,3.00
2022-08-28T04:15:56.324Z,3.45
2022-08-28T04:18:23.265Z,2.83
2022-08-28T04:21:03.180Z,2.63
2022-08-28T04:23:30.263Z,2.78
2022-08-28T04:25:57.360Z,3.05
2022-08-28T04:28:25.953Z,3.00
2022-08-28T04:30:54.671Z,2.42
2022-08-28T04:33:26.238Z,2.63
2022-08-28T04:35:53.550Z,2.80
2022-08-28T04:38:20.524Z,2.70
2022-08-28T04:40:47.392Z,2.50
2022-08-28T04:43:14.447Z,2.63
2022-08-28T04:45:42.122Z,2.40
2022-08-28T04:48:10.516Z,2.70
2022-08-28T04:50:41.354Z,2.60
2022-08-28T04:53:08.321Z,2.47
2022-08-28T04:55:54.351Z,2.45
2022-08-28T04:58:23.856Z,2.42
2022-08-28T05:00:51.958Z,2.50
2022-08-28T05:03:18.878Z,2.15
2022-08-28T05:05:46.927Z,2.42
2022-08-28T05:08:14.777Z,2.50
2022-08-28T05:10:42.404Z,2.47
2022-08-28T05:13:10.064Z,2.70
2022-08-28T05:15:41.166Z,2.30
2022-08-28T05:18:08.397Z,2.47
2022-08-28T05:20:38.874Z,2.63
2022-08-28T05:23:07.534Z,2.40
2022-08-28T05:25:35.608Z,2.42
2022-08-28T05:28:02.583Z,2.58
2022-08-28T05:30:29.802Z,2.95
2022-08-28T05:32:56.817Z,2.58
2022-08-28T05:35:24.961Z,2.30
2022-08-28T05:37:52.793Z,2.60
2022-08-28T05:40:21.515Z,2.83
2022-08-28T05:42:48.977Z,2.35
2022-08-28T05:45:16.069Z,2.25
2022-08-28T05:47:43.642Z,2.40
2022-08-28T05:50:13.726Z,2.60
2022-08-28T05:52:44.082Z,2.80
2022-08-28T05:55:12.191Z,2.40
2022-08-28T05:57:39.518Z,2.58
2022-08-28T06:00:07.685Z,2.30
2022-08-28T06:02:35.166Z,2.20
2022-08-28T06:05:02.532Z,2.65
2022-08-28T06:07:29.530Z,2.33
2022-08-28T06:09:56.731Z,2.50
2022-08-28T06:12:23.763Z,2.65
2022-08-28T06:14:51.453Z,2.60
2022-08-28T06:17:23.492Z,2.47
2022-08-28T06:19:51.142Z,2.42
2022-08-28T06:22:18.681Z,2.20
2022-08-28T06:24:45.483Z,2.53
2022-08-28T06:27:12.336Z,2.70
2022-08-28T06:29:39.998Z,2.60
2022-08-28T06:32:06.857Z,2.75
2022-08-28T06:34:33.823Z,2.47
2022-08-28T06:37:00.802Z,2.70
2022-08-28T06:39:27.665Z,2.40
2022-08-28T06:41:54.623Z,2.50
2022-08-28T06:44:22.056Z,2.92
2022-08-28T06:46:49.916Z,2.75
2022-08-28T06:49:17.034Z,2.53
2022-08-28T06:51:44.162Z,2.40
2022-08-28T06:54:11.008Z,2.75
2022-08-28T06:56:38.565Z,2.35
2022-08-28T06:59:05.693Z,2.40
2022-08-28T07:01:34.861Z,2.42
2022-08-28T07:04:04.090Z,2.15
2022-08-28T07:06:32.110Z,2.00
2022-08-28T07:08:59.015Z,2.00
2022-08-28T07:11:27.997Z,2.00
2022-08-28T07:13:55.744Z,2.00
2022-08-28T07:16:25.117Z,2.00
2022-08-28T07:18:52.255Z,2.00
2022-08-28T07:21:20.547Z,2.08
2022-08-28T07:23:47.994Z,1.88
2022-08-28T07:26:16.673Z,2.10
2022-08-28T07:28:45.447Z,1.90
2022-08-28T07:31:13.802Z,1.70
2022-08-28T07:33:41.371Z,1.90
2022-08-28T07:36:09.455Z,2.03
2022-08-28T07:38:43.059Z,1.80
2022-08-28T07:41:17.218Z,2.08
2022-08-28T07:44:04.117Z,1.98
2022-08-28T07:46:31.142Z,1.50
2022-08-28T07:49:01.469Z,1.92
2022-08-28T07:51:28.810Z,1.83
2022-08-28T07:53:57.435Z,1.88
2022-08-28T07:56:24.764Z,1.70
2022-08-28T07:58:51.714Z,1.70
2022-08-28T08:01:18.718Z,1.65
2022-08-28T08:03:45.870Z,1.70
2022-08-28T08:06:13.369Z,1.65
2022-08-28T08:08:41.163Z,1.80
2022-08-28T08:11:13.930Z,1.42
2022-08-28T08:13:44.079Z,1.30
2022-08-28T08:16:15.051Z,1.40
2022-08-28T08:18:42.233Z,1.70
2022-08-28T08:21:10.142Z,1.60
2022-08-28T08:23:37.376Z,1.30
2022-08-28T08:26:05.485Z,1.17
2022-08-28T08:28:34.621Z,1.23
2022-08-28T08:31:06.054Z,1.50
2022-08-28T08:33:33.400Z,1.45
2022-08-28T08:36:01.334Z,1.23
2022-08-28T08:38:31.823Z,1.30
2022-08-28T08:41:00.128Z,1.40
2022-08-28T08:43:28.992Z,1.10
2022-08-28T08:45:55.836Z,2.55
2022-08-28T08:48:31.223Z,1.20
2022-08-28T08:51:04.107Z,1.20
2022-08-28T08:53:39.364Z,1.33
2022-08-28T08:56:06.415Z,1.35
2022-08-28T08:58:36.822Z,1.48
2022-08-28T09:01:03.791Z,1.20
2022-08-28T09:03:44.032Z,1.38
2022-08-28T09:06:22.509Z,1.50
2022-08-28T09:08:53.105Z,1.30
2022-08-28T09:11:30.389Z,1.30
2022-08-28T09:14:00.244Z,1.27
2022-08-28T09:16:29.906Z,1.35
2022-08-28T09:18:57.933Z,1.42
2022-08-28T09:21:29.289Z,1.10
2022-08-28T09:24:00.232Z,1.30
2022-08-28T09:26:27.716Z,1.30
2022-08-28T09:29:02.702Z,1.40
2022-08-28T09:31:34.742Z,1.25
2022-08-28T09:34:20.065Z,1.40
2022-08-28T09:36:46.984Z,1.20
2022-08-28T09:39:19.518Z,1.08
2022-08-28T09:42:10.887Z,1.10
2022-08-28T09:45:18.363Z,1.38
2022-08-28T09:47:49.592Z,1.20
2022-08-28T09:50:16.417Z,1.25
2022-08-28T09:52:43.360Z,1.50
2022-08-28T09:55:12.351Z,1.48
2022-08-28T09:57:41.138Z,1.30
2022-08-28T10:00:08.341Z,1.38
2022-08-28T10:02:55.483Z,1.10
2022-08-28T10:05:32.816Z,1.38
2022-08-28T10:08:03.304Z,1.10
2022-08-28T10:10:39.372Z,1.20
2022-08-28T10:13:10.935Z,1.40
2022-08-28T10:16:14.436Z,1.23
2022-08-28T10:18:51.684Z,1.55
2022-08-28T10:21:37.941Z,1.17
2022-08-28T10:24:28.377Z,1.05
2022-08-28T10:27:08.368Z,1.20
2022-08-28T10:29:42.744Z,0.90
2022-08-28T10:32:21.511Z,1.10
2022-08-28T10:35:07.984Z,1.20
2022-08-28T10:37:45.566Z,1.08
2022-08-28T10:40:18.154Z,1.38
2022-08-28T10:42:57.390Z,1.05
2022-08-28T10:45:25.587Z,1.30
2022-08-28T10:47:55.626Z,1.10
2022-08-28T10:50:25.590Z,1.30
2022-08-28T10:53:03.894Z,1.33
2022-08-28T10:55:36.595Z,1.17
2022-08-28T10:58:05.087Z,0.95
2022-08-28T11:00:52.251Z,1.30
2022-08-28T11:03:33.982Z,1.10
2022-08-28T11:06:11.462Z,1.20
2022-08-28T11:08:40.031Z,1.30
2022-08-28T11:11:11.952Z,1.05
2022-08-28T11:13:51.384Z,1.20
2022-08-28T11:16:35.614Z,1.40
2022-08-28T11:19:05.705Z,1.30
2022-08-28T11:21:47.772Z,1.00
2022-08-28T11:24:20.698Z,1.25
2022-08-28T11:26:56.462Z,1.17
2022-08-28T11:29:42.147Z,1.10
2022-08-28T11:32:29.004Z,1.15
2022-08-28T11:34:56.963Z,1.00
2022-08-28T11:37:39.096Z,1.10
2022-08-28T11:40:24.874Z,1.17
2022-08-28T11:42:51.877Z,1.13
2022-08-28T11:45:21.765Z,1.20
2022-08-28T11:47:52.182Z,1.02
2022-08-28T11:50:20.944Z,1.30
2022-08-28T11:53:12.113Z,1.00
2022-08-28T11:56:02.129Z,1.08
2022-08-28T11:58:49.369Z,1.33
2022-08-28T12:01:27.038Z,1.20
2022-08-28T12:03:56.305Z,1.10
2022-08-28T12:06:42.108Z,1.00
2022-08-28T12:09:09.577Z,1.20
2022-08-28T12:11:39.218Z,1.00
2022-08-28T12:14:26.312Z,1.13
2022-08-28T12:16:59.058Z,1.17
2022-08-28T12:19:52.495Z,1.00
2022-08-28T12:22:39.521Z,1.20
2022-08-28T12:25:06.862Z,1.10
2022-08-28T12:27:36.620Z,0.90
2022-08-28T12:30:03.737Z,0.88
2022-08-28T12:32:33.747Z,1.00
2022-08-28T12:35:00.746Z,1.00
2022-08-28T12:37:58.637Z,0.80
2022-08-28T12:40:27.725Z,1.00
2022-08-28T12:42:55.586Z,0.98
2022-08-28T12:45:25.421Z,1.17
2022-08-28T12:47:53.716Z,1.33
2022-08-28T12:50:22.225Z,0.90
2022-08-28T12:52:51.005Z,1.25
2022-08-28T12:55:22.432Z,1.20
2022-08-28T12:57:51.775Z,1.23
2022-08-28T13:00:21.533Z,1.10
2022-08-28T13:02:50.918Z,1.23
2022-08-28T13:05:40.109Z,0.90
2022-08-28T13:08:09.590Z,1.23
2022-08-28T13:10:47.884Z,1.40
2022-08-28T13:13:22.663Z,1.20
2022-08-28T13:15:51.718Z,1.25
2022-08-28T13:18:36.953Z,1.40
2022-08-28T13:21:32.463Z,1.45
2022-08-28T13:24:01.540Z,1.00
2022-08-28T13:26:33.326Z,0.80
2022-08-28T13:29:15.384Z,0.80
2022-08-28T13:31:43.121Z,1.20
2022-08-28T13:34:16.191Z,1.00
2022-08-28T13:36:44.943Z,1.00
2022-08-28T13:39:13.304Z,0.93
2022-08-28T13:41:40.477Z,1.00
2022-08-28T13:44:08.557Z,1.08
2022-08-28T13:46:35.827Z,1.05
2022-08-28T13:49:02.689Z,1.20
2022-08-28T13:51:29.653Z,1.15
2022-08-28T13:53:57.823Z,1.20
2022-08-28T13:56:27.619Z,0.90
2022-08-28T13:58:57.894Z,1.08
2022-08-28T14:01:45.371Z,1.05
2022-08-28T14:04:13.238Z,1.10
2022-08-28T14:06:44.582Z,1.00
2022-08-28T14:09:17.659Z,0.93
2022-08-28T14:11:48.417Z,1.00
2022-08-28T14:14:15.657Z,0.85
2022-08-28T14:16:42.603Z,1.10
2022-08-28T14:19:09.685Z,0.95
2022-08-28T14:21:37.428Z,1.13
2022-08-28T14:24:04.561Z,1.13
2022-08-28T14:26:31.742Z,0.80
2022-08-28T14:29:02.256Z,1.02
2022-08-28T14:31:29.524Z,0.82
2022-08-28T14:33:57.228Z,1.20
2022-08-28T14:36:25.822Z,1.00
2022-08-28T14:38:54.393Z,0.77
2022-08-28T14:41:22.093Z,0.90
2022-08-28T14:43:49.707Z,1.00
2022-08-28T14:46:28.673Z,1.10
2022-08-28T14:48:56.860Z,1.10
2022-08-28T14:51:25.739Z,0.90
2022-08-28T14:53:53.061Z,0.98
2022-08-28T14:56:22.313Z,0.95
2022-08-28T14:58:49.268Z,0.90
2022-08-28T15:01:23.648Z,0.82
2022-08-28T15:03:51.150Z,0.88
2022-08-28T15:06:18.486Z,0.90
2022-08-28T15:08:46.899Z,0.98
2022-08-28T15:11:18.504Z,0.98
2022-08-28T15:13:46.505Z,0.75
2022-08-28T15:16:15.769Z,1.15
2022-08-28T15:18:43.756Z,0.90
2022-08-28T15:21:24.171Z,0.90
2022-08-28T15:23:55.002Z,0.85
2022-08-28T15:26:22.718Z,1.08
2022-08-28T15:28:50.797Z,1.00
2022-08-28T15:31:18.221Z,0.90
2022-08-28T15:33:45.620Z,1.00
2022-08-28T15:36:12.883Z,0.90
2022-08-28T15:38:58.179Z,0.90
2022-08-28T15:41:25.145Z,2.78
2022-08-28T15:43:57.464Z,1.88
2022-08-28T15:46:24.288Z,1.10
2022-08-28T15:48:54.446Z,2.65
2022-08-28T15:51:25.774Z,1.00
2022-08-28T15:53:53.244Z,3.70
2022-08-28T15:56:20.304Z,1.50
2022-08-28T15:58:47.546Z,1.10
2022-08-28T16:01:14.683Z,1.70
2022-08-28T16:03:41.523Z,1.00
2022-08-28T16:06:13.096Z,1.20
2022-08-28T16:08:40.795Z,1.05
2022-08-28T16:11:07.755Z,1.10
2022-08-28T16:13:35.521Z,1.10
2022-08-28T16:16:03.154Z,1.33
2022-08-28T16:18:30.306Z,1.13
2022-08-28T16:20:59.559Z,1.10
2022-08-28T16:23:29.640Z,1.00
2022-08-28T16:25:56.542Z,1.10
2022-08-28T16:28:23.451Z,1.30
2022-08-28T16:30:50.324Z,0.80
2022-08-28T16:33:20.199Z,0.88
2022-08-28T16:35:55.006Z,1.02
2022-08-28T16:38:23.633Z,0.90
2022-08-28T16:40:50.601Z,0.88
2022-08-28T16:43:17.523Z,0.90
2022-08-28T16:45:45.309Z,0.90
2022-08-28T16:48:14.175Z,1.00
2022-08-28T16:50:41.806Z,1.02
2022-08-28T16:53:09.414Z,1.10
2022-08-28T16:55:37.295Z,1.40
2022-08-28T16:58:04.639Z,1.00
2022-08-28T17:00:31.720Z,1.02
2022-08-28T17:02:58.960Z,1.10
2022-08-28T17:05:25.865Z,1.60
2022-08-28T17:07:52.730Z,1.73
2022-08-28T17:10:20.715Z,2.55
2022-08-28T17:12:47.640Z,0.90
2022-08-28T17:15:15.216Z,2.55
2022-08-28T17:17:42.291Z,1.30
2022-08-28T17:20:34.102Z,1.40
2022-08-28T17:23:01.094Z,2.70
2022-08-28T17:25:28.063Z,0.90
2022-08-28T17:27:55.787Z,1.00
2022-08-28T17:32:24.534Z,1.13
2022-08-28T17:34:51.490Z,1.58
2022-08-28T17:37:20.709Z,1.13
2022-08-28T17:39:48.010Z,1.55
2022-08-28T17:42:14.889Z,1.30
2022-08-28T17:44:42.806Z,1.27
2022-08-28T17:47:09.838Z,1.38
2022-08-28T17:49:36.847Z,3.40
2022-08-28T17:52:04.331Z,1.67
2022-08-28T17:54:31.569Z,2.30
2022-08-28T17:56:58.964Z,1.30
2022-08-28T17:59:27.811Z,1.90
2022-08-28T18:01:55.207Z,3.25
2022-08-28T18:04:24.379Z,3.83
2022-08-28T18:06:54.197Z,2.15
2022-08-28T18:09:21.755Z,2.10
2022-08-28T18:11:48.748Z,1.10
2022-08-28T18:14:15.609Z,1.60
2022-08-28T18:16:42.787Z,1.60
2022-08-28T18:19:10.398Z,1.30
2022-08-28T18:21:38.064Z,1.50
2022-08-28T18:24:05.477Z,1.27
2022-08-28T18:26:33.847Z,1.45
2022-08-28T18:29:00.730Z,2.08
2022-08-28T18:31:27.762Z,2.72
2022-08-28T18:33:54.850Z,2.63
2022-08-28T18:36:23.250Z,2.08
2022-08-28T18:38:50.232Z,1.83
2022-08-28T18:41:17.328Z,2.05
2022-08-28T18:43:44.195Z,1.60
2022-08-28T18:46:11.609Z,1.90
2022-08-28T18:48:38.581Z,1.60
2022-08-28T18:51:06.853Z,1.80
2022-08-28T18:53:33.793Z,2.20
2022-08-28T18:56:02.650Z,1.80
2022-08-28T18:58:31.442Z,1.58
2022-08-28T19:00:59.959Z,1.40
2022-08-28T19:03:26.836Z,1.30
2022-08-28T19:05:55.034Z,1.20
2022-08-28T19:08:22.436Z,1.48
2022-08-28T19:10:49.384Z,1.20
2022-08-28T19:13:16.409Z,1.20
2022-08-28T19:15:48.430Z,1.50
2022-08-28T19:18:15.546Z,1.30
2022-08-28T19:20:42.573Z,1.50
2022-08-28T19:23:10.714Z,1.10
2022-08-28T19:25:40.658Z,1.40
2022-08-28T19:28:07.784Z,1.30
2022-08-28T19:30:35.181Z,1.88
2022-08-28T19:33:03.465Z,1.40
2022-08-28T19:35:30.561Z,1.75
2022-08-28T19:37:57.529Z,1.80
2022-08-28T19:40:24.758Z,1.70
2022-08-28T19:42:52.054Z,2.00
2022-08-28T19:45:20.078Z,1.73
2022-08-28T19:47:47.245Z,1.80
2022-08-28T19:50:15.093Z,1.65
2022-08-28T19:52:43.397Z,2.28
2022-08-28T19:55:19.968Z,1.75
2022-08-28T19:57:48.415Z,1.65
2022-08-28T20:00:19.721Z,1.85
2022-08-28T20:02:48.173Z,1.90
2022-08-28T20:05:15.203Z,1.80
2022-08-28T20:07:42.410Z,1.75
2022-08-28T20:10:09.764Z,2.00
2022-08-28T20:12:38.595Z,1.80
2022-08-28T20:15:09.327Z,1.70
2022-08-28T20:17:43.874Z,1.70
2022-08-28T20:20:17.906Z,1.80
2022-08-28T20:22:46.592Z,1.50
2022-08-28T20:25:15.674Z,1.42
2022-08-28T20:27:42.684Z,1.88
2022-08-28T20:30:10.664Z,1.80
2022-08-28T20:32:40.148Z,1.80
2022-08-28T20:35:09.081Z,2.00
2022-08-28T20:37:44.543Z,1.60
2022-08-28T20:40:17.577Z,1.70
2022-08-28T20:42:44.793Z,1.60
2022-08-28T20:45:12.353Z,1.42
2022-08-28T20:47:39.326Z,1.80
2022-08-28T20:50:06.408Z,1.50
2022-08-28T20:52:33.295Z,1.33
2022-08-28T20:55:00.368Z,1.60
2022-08-28T20:57:27.338Z,1.70
2022-08-28T20:59:54.593Z,1.50
2022-08-28T21:02:23.464Z,1.55
2022-08-28T21:04:51.043Z,1.58
2022-08-28T21:07:18.946Z,1.70
2022-08-28T21:10:05.346Z,1.85
2022-08-28T21:12:32.640Z,1.80
2022-08-28T21:15:00.222Z,2.17
2022-08-28T21:17:29.355Z,1.90
2022-08-28T21:20:20.118Z,2.00
2022-08-28T21:22:47.229Z,2.00
2022-08-28T21:25:15.454Z,1.63
2022-08-28T21:27:43.340Z,1.90
2022-08-28T21:30:12.286Z,1.60
2022-08-28T21:32:39.465Z,1.90
2022-08-28T21:35:08.386Z,1.52
2022-08-28T21:37:35.574Z,1.40
2022-08-28T21:40:02.519Z,1.50
2022-08-28T21:42:29.625Z,1.80
2022-08-28T21:44:56.659Z,1.60
2022-08-28T21:47:24.278Z,1.85
2022-08-28T21:49:52.068Z,1.80
2022-08-28T21:52:19.958Z,2.20
2022-08-28T21:54:46.813Z,1.90
2022-08-28T21:57:14.260Z,1.80
2022-08-28T21:59:41.304Z,1.73
2022-08-28T22:02:08.189Z,1.65
2022-08-28T22:04:35.329Z,2.20
2022-08-28T22:07:02.391Z,1.60
2022-08-28T22:09:29.433Z,1.60
2022-08-28T22:11:56.328Z,1.10
2022-08-28T22:14:25.223Z,1.58
2022-08-28T22:16:53.488Z,1.70
2022-08-28T22:19:20.465Z,1.33
2022-08-28T22:22:05.962Z,1.58
2022-08-28T22:24:33.155Z,1.70
2022-08-28T22:27:00.112Z,1.50
2022-08-28T22:29:27.060Z,1.70
2022-08-28T22:31:54.036Z,1.73
2022-08-28T22:34:21.117Z,1.33
2022-08-28T22:36:48.005Z,1.50
2022-08-28T22:39:15.073Z,2.00
2022-08-28T22:41:42.243Z,2.03
2022-08-28T22:44:09.267Z,1.60
2022-08-28T22:46:36.468Z,1.90
2022-08-28T22:49:03.603Z,2.00
2022-08-28T22:51:30.535Z,1.80
2022-08-28T22:53:57.461Z,2.15
2022-08-28T22:56:24.940Z,1.92
2022-08-28T22:58:51.915Z,1.70
2022-08-28T23:01:21.761Z,2.10
2022-08-28T23:03:49.291Z,1.90
2022-08-28T23:06:16.194Z,1.85
2022-08-28T23:08:43.285Z,1.60
2022-08-28T23:11:10.768Z,1.70
2022-08-28T23:13:38.040Z,1.80
2022-08-28T23:16:05.108Z,2.03
2022-08-28T23:18:46.256Z,1.80
2022-08-28T23:21:19.959Z,1.92
2022-08-28T23:23:46.830Z,1.83
2022-08-28T23:26:14.247Z,1.83
2022-08-28T23:28:41.575Z,2.00
2022-08-28T23:31:08.554Z,1.77
2022-08-28T23:33:35.525Z,2.03
2022-08-28T23:36:02.707Z,2.03
2022-08-28T23:38:29.779Z,1.70
2022-08-28T23:40:57.173Z,1.90
2022-08-28T23:43:24.501Z,2.28
2022-08-28T23:45:52.109Z,1.80
2022-08-28T23:48:19.306Z,1.92
2022-08-28T23:50:46.546Z,1.70
2022-08-28T23:53:13.854Z,1.92
2022-08-28T23:55:43.852Z,1.60
2022-08-28T23:58:10.960Z,1.88
